Time;durP1;ratioP1;P1;durP2;ratioP2;P2;SDS_P1;SDS_P2;PMS_P1;PMS_P2;Temp;Humidity;BMP_temperature;BMP_pressure;BME280_temperature;BME280_humidity;BME280_pressure;Samples;Min_cycle;Max_cycle;Signal;HPM_P1;HPM_P2
2022/08/13 00:01:26;;;;;;;14.10;12.70;;;;;;;17.74;82.69;96816.45;108530;1267;22662;-77
2022/08/13 00:04:00;;;;;;;14.10;12.70;;;;;;;17.78;82.60;96817.14;108441;1267;23204;-76
2022/08/13 00:09:22;;;;;;;14.70;13.20;;;;;;;17.77;82.62;96815.63;108479;1268;32438;-77
2022/08/13 00:14:47;;;;;;;14.40;13.00;;;;;;;17.89;82.72;96816.30;108335;1267;22457;-76
2022/08/13 00:17:20;;;;;;;13.60;12.20;;;;;;;17.90;82.61;96816.20;108529;1267;22610;-76
2022/08/13 00:19:53;;;;;;;15.10;13.60;;;;;;;17.78;82.55;96813.45;108413;1266;39013;-76
2022/08/13 00:22:26;;;;;;;15.30;13.70;;;;;;;17.58;82.87;96814.50;108499;1268;25368;-76
2022/08/13 00:24:57;;;;;;;16.20;14.50;;;;;;;17.43;83.41;96813.05;108470;1268;22526;-76
2022/08/13 00:27:29;;;;;;;15.70;14.00;;;;;;;17.38;83.87;96812.46;108521;1267;23887;-77
2022/08/13 00:30:00;;;;;;;15.50;14.00;;;;;;;17.49;84.24;96807.38;108431;1267;28405;-76
2022/08/13 00:32:31;;;;;;;15.50;13.60;;;;;;;17.62;84.32;96804.39;108539;1268;25405;-77
2022/08/13 00:35:03;;;;;;;16.70;15.00;;;;;;;17.60;84.13;96795.36;108414;1268;24177;-77
2022/08/13 00:37:37;;;;;;;17.10;15.40;;;;;;;17.45;84.40;96792.98;108456;1267;22470;-76
2022/08/13 00:40:11;;;;;;;16.60;15.00;;;;;;;17.33;84.84;96789.27;108554;1268;22458;-76
2022/08/13 00:42:42;;;;;;;18.50;16.60;;;;;;;17.28;85.40;96791.34;108454;1268;23122;-76
2022/08/13 00:45:13;;;;;;;17.10;15.40;;;;;;;17.26;85.77;96787.75;108532;1266;23838;-76
2022/08/13 00:50:33;;;;;;;18.50;16.80;;;;;;;17.44;85.96;96790.55;108525;1268;24264;-76
2022/08/13 00:53:05;;;;;;;16.80;15.20;;;;;;;17.55;85.87;96785.38;108505;1268;22556;-76
2022/08/13 00:55:37;;;;;;;19.60;15.50;;;;;;;17.64;85.73;96778.50;108474;1267;22513;-76
2022/08/13 00:58:08;;;;;;;18.40;16.50;;;;;;;17.69;85.71;96774.63;108451;1267;28243;-76
2022/08/13 01:00:39;;;;;;;19.70;17.70;;;;;;;17.70;85.72;96770.89;108460;1268;22696;-76
2022/08/13 01:03:11;;;;;;;18.70;16.70;;;;;;;17.59;85.74;96762.61;108530;1268;22534;-76
2022/08/13 01:05:44;;;;;;;18.90;17.10;;;;;;;17.52;86.01;96764.67;108536;1267;22566;-76
2022/08/13 01:08:17;;;;;;;18.60;16.70;;;;;;;17.47;86.36;96761.13;108410;1268;23907;-76
2022/08/13 01:10:50;;;;;;;18.80;17.00;;;;;;;17.44;86.63;96756.73;108551;1265;24174;-76
2022/08/13 01:13:25;;;;;;;18.70;16.80;;;;;;;17.37;86.69;96751.72;108466;1268;22650;-76
2022/08/13 01:15:58;;;;;;;18.70;16.70;;;;;;;17.35;86.99;96751.79;108513;1268;22555;-76
2022/08/13 01:18:30;;;;;;;19.50;17.60;;;;;;;17.41;87.25;96750.66;108484;1268;26109;-76
2022/08/13 01:21:08;;;;;;;20.00;18.10;;;;;;;17.42;87.27;96744.80;108543;1268;23196;-77
2022/08/13 01:23:43;;;;;;;20.90;18.70;;;;;;;17.43;87.41;96749.64;108555;1268;22949;-77
2022/08/13 01:26:16;;;;;;;18.90;17.20;;;;;;;17.47;87.39;96744.02;108472;1267;22666;-76
2022/08/13 01:28:50;;;;;;;19.30;17.40;;;;;;;17.57;87.44;96738.02;108477;1268;24865;-76
2022/08/13 01:31:22;;;;;;;19.40;17.40;;;;;;;17.65;87.26;96737.17;108464;1267;23079;-76
2022/08/13 01:33:59;;;;;;;19.10;17.10;;;;;;;17.71;87.13;96740.35;108529;1267;22537;-76
2022/08/13 01:36:31;;;;;;;18.80;16.80;;;;;;;17.79;86.93;96746.09;108443;1267;22606;-76
2022/08/13 01:39:05;;;;;;;17.60;15.80;;;;;;;17.86;86.86;96738.13;108396;1268;27457;-76
2022/08/13 01:41:36;;;;;;;16.60;14.80;;;;;;;17.89;86.71;96736.13;108466;1267;22543;-76
2022/08/13 01:44:08;;;;;;;17.20;15.60;;;;;;;17.88;86.59;96727.61;108547;1268;22568;-76
2022/08/13 01:52:15;;;;;;;17.90;16.10;;;;;;;17.97;86.30;96724.71;108499;1266;22663;-76
2022/08/13 01:54:46;;;;;;;16.90;15.20;;;;;;;17.98;86.32;96723.47;108469;1268;22565;-77
2022/08/13 01:57:18;;;;;;;18.90;17.00;;;;;;;17.98;86.29;96719.52;108482;1267;23849;-76
2022/08/13 01:59:50;;;;;;;20.20;18.20;;;;;;;17.79;86.15;96718.58;108469;1266;24927;-76
2022/08/13 02:02:23;;;;;;;19.80;17.90;;;;;;;17.59;86.48;96723.79;108465;1268;23899;-77
2022/08/13 02:04:54;;;;;;;19.40;17.40;;;;;;;17.52;86.89;96732.35;108471;1268;22507;-77
2022/08/13 02:07:25;;;;;;;21.80;19.60;;;;;;;17.58;87.21;96724.04;108556;1268;22533;-76
2022/08/13 02:09:56;;;;;;;20.70;18.70;;;;;;;17.59;87.19;96723.20;108381;1267;29369;-77
2022/08/13 02:12:27;;;;;;;19.50;17.60;;;;;;;17.61;87.19;96720.86;108579;1267;22653;-76
2022/08/13 02:15:01;;;;;;;21.50;19.20;;;;;;;17.66;87.25;96721.98;108546;1268;22827;-77
2022/08/13 02:17:38;;;;;;;18.80;16.70;;;;;;;17.67;87.12;96720.73;108568;1267;23163;-77
2022/08/13 02:20:17;;;;;;;17.70;15.90;;;;;;;17.68;87.04;96726.45;108537;1268;22475;-76
2022/08/13 02:22:49;;;;;;;16.40;14.70;;;;;;;17.74;86.92;96730.80;108542;1268;22554;-76
2022/08/13 02:25:22;;;;;;;19.70;17.70;;;;;;;17.79;86.83;96733.13;108418;1268;22548;-77
2022/08/13 02:27:55;;;;;;;24.30;21.60;;;;;;;17.76;86.64;96734.55;108500;1268;39737;-77
2022/08/13 02:30:29;;;;;;;25.70;23.10;;;;;;;17.71;86.79;96731.55;108453;1268;22558;-77
2022/08/13 02:33:00;;;;;;;28.20;25.20;;;;;;;17.69;86.91;96731.48;108534;1266;22530;-76
2022/08/13 02:35:35;;;;;;;27.10;24.30;;;;;;;17.71;86.95;96727.11;108524;1267;23855;-76
2022/08/13 02:38:11;;;;;;;27.50;24.60;;;;;;;17.74;87.02;96728.03;108325;1270;32196;-76
2022/08/13 02:43:32;;;;;;;37.10;28.80;;;;;;;17.47;87.37;96733.60;108560;1268;25904;-76
2022/08/13 02:46:04;;;;;;;31.70;28.30;;;;;;;17.37;87.73;96728.77;108559;1268;24163;-77
2022/08/13 02:48:36;;;;;;;32.50;28.40;;;;;;;17.32;88.06;96728.98;108415;1267;32969;-76
2022/08/13 02:51:07;;;;;;;32.90;29.10;;;;;;;17.29;88.33;96730.69;108498;1268;22526;-77
2022/08/13 02:53:38;;;;;;;36.20;29.90;;;;;;;17.26;88.55;96731.77;108560;1268;23841;-76
2022/08/13 02:56:09;;;;;;;34.20;29.20;;;;;;;17.20;88.84;96735.86;108447;1267;22537;-76
2022/08/13 02:58:41;;;;;;;35.30;27.90;;;;;;;17.15;89.15;96728.06;108413;1267;23658;-76
2022/08/13 03:01:14;;;;;;;39.30;31.20;;;;;;;17.21;89.33;96727.85;108469;1267;22463;-76
2022/08/13 03:03:44;;;;;;;40.60;31.20;;;;;;;17.23;89.43;96721.79;108569;1267;22549;-76
2022/08/13 03:06:18;;;;;;;39.80;31.60;;;;;;;17.25;89.41;96720.33;108488;1267;22529;-76
2022/08/13 03:08:51;;;;;;;38.00;29.60;;;;;;;17.23;89.44;96718.58;108486;1267;27782;-76
2022/08/13 03:11:23;;;;;;;45.90;32.40;;;;;;;17.20;89.56;96717.16;108477;1267;22527;-76
2022/08/13 03:13:57;;;;;;;39.00;30.70;;;;;;;17.12;89.85;96713.77;108546;1268;22555;-76
2022/08/13 03:16:29;;;;;;;39.20;31.40;;;;;;;17.08;90.12;96708.61;108441;1267;22556;-76
2022/08/13 03:19:00;;;;;;;61.30;32.40;;;;;;;17.08;90.43;96704.01;108374;1267;35041;-76
2022/08/13 03:21:34;;;;;;;86.50;32.60;;;;;;;17.04;90.48;96702.61;108445;1267;22559;-76
2022/08/13 03:24:07;;;;;;;43.70;31.00;;;;;;;17.00;90.64;96697.82;108554;1267;22543;-76
2022/08/13 03:26:42;;;;;;;44.50;32.60;;;;;;;17.05;90.88;96695.75;108501;1267;22559;-76
2022/08/13 03:29:14;;;;;;;40.50;33.40;;;;;;;17.13;90.92;96693.49;108372;1267;23852;-76
2022/08/13 03:31:46;;;;;;;47.50;30.90;;;;;;;17.18;90.78;96692.75;108525;1267;22464;-76
2022/08/13 03:34:20;;;;;;;40.30;31.50;;;;;;;17.14;90.78;96696.02;108420;1267;22593;-76
2022/08/13 03:36:53;;;;;;;42.40;33.10;;;;;;;17.16;90.86;96700.36;108553;1267;22593;-76
2022/08/13 03:39:24;;;;;;;45.10;33.10;;;;;;;17.16;90.81;96701.65;108387;1267;31413;-76
2022/08/13 03:41:59;;;;;;;40.60;32.30;;;;;;;17.20;91.08;96704.09;108342;1269;22562;-76
2022/08/13 03:44:30;;;;;;;41.30;32.70;;;;;;;17.22;90.99;96710.66;108494;1267;22549;-76
2022/08/13 03:47:01;;;;;;;41.70;32.10;;;;;;;17.27;90.99;96709.25;108415;1266;22468;-76
2022/08/13 03:49:36;;;;;;;42.10;32.30;;;;;;;17.34;90.97;96711.69;108369;1268;42555;-76
2022/08/13 03:52:08;;;;;;;53.20;34.30;;;;;;;17.39;90.95;96709.05;108549;1267;22658;-76
2022/08/13 03:54:39;;;;;;;53.90;32.50;;;;;;;17.40;90.80;96711.19;108498;1267;22831;-76
2022/08/13 03:57:11;;;;;;;72.40;35.90;;;;;;;17.34;90.80;96712.85;108565;1267;23861;-76
2022/08/13 03:59:43;;;;;;;49.00;35.30;;;;;;;17.27;90.97;96715.66;108372;1267;29972;-76
2022/08/13 04:02:15;;;;;;;52.30;35.00;;;;;;;17.19;91.23;96712.82;108559;1268;23835;-76
2022/08/13 04:04:47;;;;;;;51.20;36.00;;;;;;;17.14;91.57;96716.33;108501;1267;22621;-76
2022/08/13 04:07:22;;;;;;;48.90;34.40;;;;;;;17.07;91.75;96713.30;107542;1268;1308084;-76
2022/08/13 04:09:54;;;;;;;45.50;33.20;;;;;;;17.04;92.11;96710.34;108460;1267;28960;-76
2022/08/13 04:12:25;;;;;;;48.30;34.30;;;;;;;17.06;92.29;96713.81;108539;1267;22808;-76
2022/08/13 04:14:56;;;;;;;50.00;34.70;;;;;;;17.11;92.36;96712.41;108533;1267;22557;-76
2022/08/13 04:17:27;;;;;;;45.80;32.60;;;;;;;17.08;92.23;96714.27;108519;1268;22527;-76
2022/08/13 04:19:59;;;;;;;44.70;33.40;;;;;;;17.08;92.47;96714.05;108412;1267;31932;-76
2022/08/13 04:22:30;;;;;;;44.60;32.70;;;;;;;17.14;92.53;96714.04;108457;1268;24261;-76
2022/08/13 04:25:04;;;;;;;48.90;34.50;;;;;;;17.19;92.62;96712.63;108450;1267;22591;-76
2022/08/13 04:27:36;;;;;;;44.20;33.10;;;;;;;17.19;92.57;96708.34;108514;1267;22473;-76
2022/08/13 04:30:09;;;;;;;45.00;33.90;;;;;;;17.21;92.68;96703.10;108508;1267;22550;-76
2022/08/13 04:32:45;;;;;;;44.10;33.80;;;;;;;17.24;92.73;96705.05;108567;1267;22611;-76
2022/08/13 04:35:16;;;;;;;52.20;33.00;;;;;;;17.27;92.70;96703.58;108416;1268;22550;-76
2022/08/13 04:37:51;;;;;;;74.20;30.20;;;;;;;17.25;92.52;96701.67;108378;1268;27406;-76
2022/08/13 04:40:22;;;;;;;70.20;30.20;;;;;;;17.15;92.60;96697.50;108537;1268;25239;-76
2022/08/13 04:42:55;;;;;;;58.00;28.70;;;;;;;17.07;92.72;96698.61;108454;1268;23860;-76
2022/08/13 04:45:28;;;;;;;50.70;29.90;;;;;;;17.04;93.14;96694.22;108353;1268;22679;-76
2022/08/13 04:48:03;;;;;;;33.30;26.60;;;;;;;17.05;93.24;96694.31;108329;1268;41617;-76
2022/08/13 04:50:37;;;;;;;52.00;28.00;;;;;;;17.11;93.25;96696.77;108503;1267;23014;-76
2022/08/13 04:53:10;;;;;;;40.60;28.70;;;;;;;17.14;93.22;96695.09;108522;1268;22549;-76
2022/08/13 04:55:41;;;;;;;51.60;28.90;;;;;;;17.16;93.14;96691.17;108454;1268;22536;-76
2022/08/13 04:58:12;;;;;;;63.20;28.50;;;;;;;17.14;93.08;96691.51;108393;1267;32496;-76
2022/08/13 05:00:44;;;;;;;64.30;28.20;;;;;;;17.16;93.09;96693.23;108487;1268;22522;-76
2022/08/13 05:03:16;;;;;;;50.90;28.40;;;;;;;17.13;93.19;96696.20;108361;1268;22537;-76
2022/08/13 05:05:49;;;;;;;34.10;28.20;;;;;;;17.14;93.24;96699.60;108488;1268;23960;-76
2022/08/13 05:08:21;;;;;;;35.10;26.50;;;;;;;17.21;93.35;96695.70;108333;1268;29419;-76
2022/08/13 05:10:53;;;;;;;36.00;26.00;;;;;;;17.29;93.43;96689.05;108525;1267;23884;-76
2022/08/13 05:13:27;;;;;;;40.30;27.70;;;;;;;17.33;93.18;96694.94;108538;1268;22540;-76
2022/08/13 05:16:00;;;;;;;29.00;24.60;;;;;;;17.29;93.05;96697.44;108501;1268;22657;-76
2022/08/13 05:18:34;;;;;;;34.80;25.80;;;;;;;17.30;93.06;96690.95;108381;1268;34851;-76
2022/08/13 05:21:09;;;;;;;33.00;26.90;;;;;;;17.35;93.11;96689.55;108422;1268;22533;-76
2022/08/13 05:23:42;;;;;;;32.50;27.00;;;;;;;17.32;93.01;96683.57;108517;1268;22486;-76
2022/08/13 05:26:14;;;;;;;41.40;27.40;;;;;;;17.29;93.03;96689.58;108495;1268;22634;-76
2022/08/13 05:28:45;;;;;;;38.50;28.20;;;;;;;17.30;93.17;96693.75;108442;1268;25730;-76
2022/08/13 05:31:18;;;;;;;35.40;28.10;;;;;;;17.36;93.19;96691.24;108523;1268;22522;-76
2022/08/13 05:33:49;;;;;;;44.40;27.50;;;;;;;17.41;93.13;96693.98;108451;1268;25395;-76
2022/08/13 05:36:22;;;;;;;50.90;28.00;;;;;;;17.31;92.85;96696.48;108406;1268;22554;-76
2022/08/13 05:38:54;;;;;;;52.30;29.40;;;;;;;17.16;92.96;96700.55;108392;1268;30624;-76
2022/08/13 05:41:25;;;;;;;38.20;29.50;;;;;;;17.05;93.52;96701.45;108326;1270;22476;-76
2022/08/13 05:44:00;;;;;;;51.00;30.10;;;;;;;17.04;93.88;96699.73;108517;1268;25235;-76
2022/08/13 05:46:31;;;;;;;59.60;28.80;;;;;;;17.04;94.03;96699.92;108419;1268;22578;-76
2022/08/13 05:49:02;;;;;;;51.80;30.80;;;;;;;16.93;94.33;96701.54;108327;1268;35656;-76
2022/08/13 05:51:33;;;;;;;61.20;31.60;;;;;;;16.90;94.70;96701.15;108400;1268;25373;-76
2022/08/13 05:54:07;;;;;;;67.00;31.70;;;;;;;16.82;95.10;96700.50;108409;1268;22554;-76
2022/08/13 05:56:39;;;;;;;53.20;32.30;;;;;;;16.74;95.63;96703.42;108513;1268;22486;-76
2022/08/13 06:03:22;;;;;;;44.90;30.80;;;;;;;16.75;95.85;96704.41;108363;1268;33197;-76
2022/08/13 06:04:53;;;;;;;42.60;31.00;;;;;;;16.74;96.24;96706.24;108510;1268;22539;-76
2022/08/13 06:07:24;;;;;;;47.90;31.00;;;;;;;16.74;96.51;96706.57;108511;1268;22687;-76
2022/08/13 06:09:56;;;;;;;44.10;31.40;;;;;;;16.80;96.62;96707.30;108442;1268;24347;-76
2022/08/13 06:12:27;;;;;;;45.40;31.00;;;;;;;16.84;96.66;96705.03;108461;1267;22564;-76
2022/08/13 06:14:59;;;;;;;46.00;30.80;;;;;;;16.88;96.79;96703.54;108455;1267;24236;-76
2022/08/13 06:17:31;;;;;;;42.10;31.30;;;;;;;16.90;96.72;96703.93;108528;1267;24172;-76
2022/08/13 06:20:03;;;;;;;43.70;31.20;;;;;;;16.95;96.69;96702.48;108450;1267;24251;-76
2022/08/13 06:22:37;;;;;;;43.50;30.60;;;;;;;16.96;96.69;96700.73;108519;1268;22542;-76
2022/08/13 06:25:10;;;;;;;45.80;31.70;;;;;;;16.89;96.69;96702.13;108435;1268;25368;-76
2022/08/13 06:27:42;;;;;;;45.60;30.00;;;;;;;16.86;96.88;96700.02;108538;1268;22609;-76
2022/08/13 06:30:18;;;;;;;48.50;31.90;;;;;;;16.88;97.15;96699.70;108542;1267;22473;-76
2022/08/13 06:32:51;;;;;;;43.20;30.70;;;;;;;16.94;97.12;96702.41;108447;1268;22551;-76
2022/08/13 06:35:23;;;;;;;42.90;30.60;;;;;;;17.02;97.23;96699.95;108528;1268;22567;-76
2022/08/13 06:37:55;;;;;;;38.70;29.00;;;;;;;17.13;97.16;96700.94;108383;1268;36017;-76
2022/08/13 06:40:30;;;;;;;39.20;28.80;;;;;;;17.18;96.94;96700.40;108412;1268;22607;-76
2022/08/13 06:43:02;;;;;;;40.90;28.90;;;;;;;17.16;96.73;96695.79;108505;1268;22564;-76
2022/08/13 06:45:36;;;;;;;37.60;27.50;;;;;;;17.16;96.84;96692.25;108496;1266;23706;-76
2022/08/13 06:48:10;;;;;;;35.20;26.70;;;;;;;17.20;96.82;96687.23;108348;1267;26240;-76
2022/08/13 06:50:42;;;;;;;39.30;28.50;;;;;;;17.25;96.75;96685.65;108508;1267;22595;-76
2022/08/13 06:53:13;;;;;;;36.90;27.80;;;;;;;17.32;96.75;96680.70;108443;1268;23842;-76
2022/08/13 06:55:46;;;;;;;32.30;25.10;;;;;;;17.37;96.73;96679.52;108461;1268;22582;-76
2022/08/13 06:58:22;;;;;;;35.00;26.20;;;;;;;17.43;96.54;96681.44;108377;1268;26229;-76
2022/08/13 07:00:55;;;;;;;29.90;23.10;;;;;;;17.46;96.28;96685.00;108454;1268;22529;-76
2022/08/13 07:03:30;;;;;;;30.40;23.00;;;;;;;17.37;96.04;96685.19;108482;1267;22888;-76
2022/08/13 07:06:02;;;;;;;32.30;23.80;;;;;;;17.32;96.08;96680.99;108502;1268;22743;-76
2022/08/13 07:08:34;;;;;;;29.00;23.20;;;;;;;17.28;96.20;96683.25;108428;1268;30701;-76
2022/08/13 07:11:24;;;;;;;28.20;21.60;;;;;;;17.21;96.36;96684.29;108482;1268;22568;-76
2022/08/13 07:13:57;;;;;;;25.40;21.10;;;;;;;17.16;96.64;96683.38;108425;1268;23887;-76
2022/08/13 07:16:30;;;;;;;27.30;21.60;;;;;;;17.16;96.90;96684.98;108427;1267;22523;-76
2022/08/13 07:19:04;;;;;;;26.70;22.30;;;;;;;17.22;97.26;96683.34;108463;1268;27785;-76
2022/08/13 07:21:36;;;;;;;27.00;21.80;;;;;;;17.33;97.49;96682.96;108517;1265;22612;-76
2022/08/13 07:24:10;;;;;;;28.00;23.10;;;;;;;17.38;97.06;96685.52;108443;1268;22549;-76
2022/08/13 07:26:42;;;;;;;24.20;20.90;;;;;;;17.37;96.90;96682.16;108389;1268;22526;-76
2022/08/13 07:29:14;;;;;;;26.90;21.00;;;;;;;17.35;97.07;96684.19;108388;1268;25505;-76
2022/08/13 07:31:45;;;;;;;22.80;18.90;;;;;;;17.42;97.37;96687.63;108406;1267;22573;-76
2022/08/13 07:34:17;;;;;;;23.30;17.90;;;;;;;17.44;97.34;96686.99;108360;1268;23912;-76
2022/08/13 07:36:55;;;;;;;24.10;18.30;;;;;;;17.45;97.34;96686.96;108496;1268;22683;-76
2022/08/13 07:39:27;;;;;;;22.30;18.30;;;;;;;17.47;97.44;96692.14;108432;1268;33539;-76
2022/08/13 07:42:00;;;;;;;22.90;18.70;;;;;;;17.41;97.38;96693.62;108431;1267;22627;-76
2022/08/13 07:44:31;;;;;;;21.70;18.60;;;;;;;17.48;97.69;96690.52;108520;1267;24873;-76
2022/08/13 07:47:08;;;;;;;20.80;17.00;;;;;;;17.48;97.80;96692.16;108481;1266;22537;-76
2022/08/13 07:49:40;;;;;;;21.70;18.00;;;;;;;17.42;97.74;96692.04;108333;1268;31218;-76
2022/08/13 07:52:12;;;;;;;22.20;18.20;;;;;;;17.39;98.03;96688.93;108476;1268;25428;-76
2022/08/13 07:54:45;;;;;;;24.40;19.00;;;;;;;17.37;98.12;96685.70;108448;1268;22799;-76
2022/08/13 07:57:17;;;;;;;23.50;18.90;;;;;;;17.40;98.43;96685.21;108505;1268;22634;-76
2022/08/13 07:59:50;;;;;;;22.00;18.10;;;;;;;17.50;98.98;96681.17;108421;1268;37301;-76
2022/08/13 08:02:22;;;;;;;22.50;17.10;;;;;;;17.61;99.06;96680.27;108407;1268;24968;-76
2022/08/13 08:04:53;;;;;;;21.30;16.00;;;;;;;17.64;99.05;96676.64;108434;1268;22555;-76
2022/08/13 08:07:26;;;;;;;16.00;12.90;;;;;;;17.69;99.13;96677.30;108344;1271;22549;-76
2022/08/13 08:09:59;;;;;;;18.90;14.20;;;;;;;17.72;98.94;96676.73;108426;1268;31833;-76
2022/08/13 08:12:35;;;;;;;19.30;15.00;;;;;;;17.67;98.98;96673.98;108491;1268;22809;-76
2022/08/13 08:15:12;;;;;;;18.20;14.70;;;;;;;17.66;99.10;96670.84;108476;1268;22545;-76
2022/08/13 08:17:44;;;;;;;18.60;14.30;;;;;;;17.64;99.35;96665.39;108439;1268;31383;-76
2022/08/13 08:20:22;;;;;;;15.50;11.80;;;;;;;17.68;99.66;96663.64;108392;1268;22461;-76
2022/08/13 08:22:54;;;;;;;16.80;12.60;;;;;;;17.64;99.67;96657.86;108522;1267;22531;-76
2022/08/13 08:25:26;;;;;;;17.40;13.40;;;;;;;17.59;99.86;96659.13;108524;1268;25365;-76
2022/08/13 08:27:57;;;;;;;14.90;12.30;;;;;;;17.55;99.94;96658.34;108447;1268;35236;-76
2022/08/13 08:30:29;;;;;;;16.00;13.10;;;;;;;17.52;100.00;96655.91;108511;1268;23745;-76
2022/08/13 08:33:01;;;;;;;20.20;13.90;;;;;;;17.52;100.00;96654.02;108427;1268;22668;-76
2022/08/13 08:35:33;;;;;;;15.60;12.40;;;;;;;17.51;100.00;96653.36;108483;1268;22623;-76
2022/08/13 08:43:44;;;;;;;16.00;12.40;;;;;;;17.44;100.00;96644.80;108489;1267;22668;-77
2022/08/13 08:46:17;;;;;;;16.20;12.10;;;;;;;17.42;100.00;96645.72;108480;1267;22624;-76
2022/08/13 08:48:48;;;;;;;13.00;11.10;;;;;;;17.44;100.00;96646.69;108453;1268;28151;-76
2022/08/13 08:51:22;;;;;;;13.80;11.60;;;;;;;17.45;100.00;96651.90;108524;1267;22526;-76
2022/08/13 08:53:56;;;;;;;11.50;9.20;;;;;;;17.48;100.00;96649.50;108507;1267;22643;-76
2022/08/13 08:56:29;;;;;;;11.40;8.60;;;;;;;17.49;100.00;96649.39;108510;1268;23358;-76
2022/08/13 08:59:03;;;;;;;9.70;6.90;;;;;;;17.54;100.00;96645.73;108439;1268;31453;-76
2022/08/13 09:01:37;;;;;;;7.10;5.30;;;;;;;17.58;100.00;96639.92;108549;1268;25946;-76
2022/08/13 09:04:09;;;;;;;5.90;4.80;;;;;;;17.69;100.00;96641.75;108416;1268;22527;-76
2022/08/13 09:06:41;;;;;;;7.50;5.60;;;;;;;17.77;100.00;96637.45;108526;1268;24238;-76
2022/08/13 09:09:13;;;;;;;7.40;5.70;;;;;;;17.88;100.00;96640.60;108441;1268;39869;-76
2022/08/13 09:11:46;;;;;;;7.60;5.40;;;;;;;17.98;100.00;96635.08;108532;1268;22622;-76
2022/08/13 09:14:18;;;;;;;8.90;6.80;;;;;;;18.01;100.00;96638.45;108527;1268;23996;-76
2022/08/13 09:16:49;;;;;;;8.00;6.40;;;;;;;17.95;100.00;96638.25;108511;1268;22583;-76
2022/08/13 09:19:21;;;;;;;10.60;7.60;;;;;;;17.90;100.00;96632.17;108368;1268;29687;-76
2022/08/13 09:21:53;;;;;;;9.30;7.20;;;;;;;17.89;100.00;96635.48;108471;1268;25291;-76
2022/08/13 09:24:25;;;;;;;10.00;7.20;;;;;;;17.90;100.00;96633.79;108523;1268;22558;-76
2022/08/13 09:26:59;;;;;;;10.90;7.80;;;;;;;17.93;100.00;96635.88;108497;1268;23704;-76
2022/08/13 09:29:31;;;;;;;9.60;8.00;;;;;;;17.98;100.00;96636.78;108448;1268;33436;-76
2022/08/13 09:32:05;;;;;;;10.50;8.50;;;;;;;18.01;100.00;96634.64;108375;1269;22563;-76
2022/08/13 09:34:37;;;;;;;11.70;9.30;;;;;;;18.01;100.00;96637.59;108485;1268;22783;-76
2022/08/13 09:37:08;;;;;;;12.00;10.00;;;;;;;18.05;100.00;96632.52;108554;1267;23895;-76
2022/08/13 09:39:48;;;;;;;10.50;9.40;;;;;;;18.09;100.00;96635.90;108447;1268;40248;-76
2022/08/13 09:42:25;;;;;;;13.20;9.80;;;;;;;18.15;100.00;96632.04;108549;1268;23282;-76
2022/08/13 09:45:00;;;;;;;10.80;9.60;;;;;;;18.18;100.00;96632.79;108520;1268;22700;-76
2022/08/13 09:47:31;;;;;;;11.90;10.10;;;;;;;18.23;100.00;96629.98;108534;1268;24207;-76
2022/08/13 09:50:02;;;;;;;12.30;10.70;;;;;;;18.26;100.00;96630.25;108334;1268;33815;-76
2022/08/13 09:52:35;;;;;;;12.80;10.90;;;;;;;18.30;100.00;96626.64;108419;1268;22664;-77
2022/08/13 09:55:09;;;;;;;13.40;11.90;;;;;;;18.32;100.00;96628.89;108430;1268;22805;-76
2022/08/13 09:57:52;;;;;;;12.70;11.40;;;;;;;18.34;100.00;96625.12;108563;1268;22660;-76
2022/08/13 10:00:27;;;;;;;13.70;12.20;;;;;;;18.37;100.00;96625.75;108499;1268;22555;-77
2022/08/13 10:03:01;;;;;;;14.30;12.70;;;;;;;18.44;100.00;96629.43;108549;1268;25397;-76
2022/08/13 10:05:34;;;;;;;14.30;12.60;;;;;;;18.49;100.00;96626.42;108432;1268;22522;-76
2022/08/13 10:08:07;;;;;;;16.40;13.90;;;;;;;18.54;100.00;96623.21;108368;1268;29825;-76
2022/08/13 10:10:39;;;;;;;15.30;13.70;;;;;;;18.61;100.00;96617.48;108444;1268;25371;-76
2022/08/13 10:13:11;;;;;;;15.50;13.70;;;;;;;18.61;100.00;96612.59;108519;1268;22554;-77
2022/08/13 10:15:43;;;;;;;15.30;13.70;;;;;;;18.61;100.00;96612.00;108480;1268;22552;-76
2022/08/13 10:18:14;;;;;;;15.40;13.20;;;;;;;18.62;100.00;96613.94;108364;1267;33652;-76
2022/08/13 10:20:48;;;;;;;16.00;14.30;;;;;;;18.60;100.00;96614.63;108397;1267;23797;-76
2022/08/13 10:23:21;;;;;;;16.10;14.40;;;;;;;18.57;100.00;96616.71;108438;1268;23794;-76
2022/08/13 10:25:53;;;;;;;15.90;14.30;;;;;;;18.49;100.00;96613.16;108514;1267;22693;-76
2022/08/13 10:28:31;;;;;;;16.10;14.40;;;;;;;18.42;100.00;96611.81;108326;1268;36035;-76
2022/08/13 10:31:04;;;;;;;16.90;15.10;;;;;;;18.37;100.00;96611.20;108446;1268;23494;-76
2022/08/13 10:33:35;;;;;;;16.90;15.10;;;;;;;18.39;100.00;96607.17;108486;1268;23897;-76
2022/08/13 10:36:09;;;;;;;18.10;16.30;;;;;;;18.52;100.00;96605.96;108540;1268;22691;-76
2022/08/13 10:38:40;;;;;;;17.60;15.80;;;;;;;18.57;100.00;96606.30;108387;1268;28326;-76
2022/08/13 10:41:11;;;;;;;17.30;15.50;;;;;;;18.63;100.00;96598.77;108493;1268;22668;-76
2022/08/13 10:43:43;;;;;;;17.30;15.50;;;;;;;18.69;100.00;96597.92;108551;1268;22622;-76
2022/08/13 10:46:17;;;;;;;17.00;15.20;;;;;;;18.76;100.00;96598.03;108534;1268;22669;-76
2022/08/13 10:48:55;;;;;;;17.60;15.80;;;;;;;18.89;100.00;96592.73;108509;1268;22782;-76
2022/08/13 10:51:30;;;;;;;19.10;16.30;;;;;;;18.93;100.00;96589.77;108429;1268;22538;-76
2022/08/13 10:54:05;;;;;;;17.30;15.50;;;;;;;18.96;100.00;96587.59;108505;1268;22481;-76
2022/08/13 10:56:37;;;;;;;17.00;15.30;;;;;;;18.95;100.00;96584.65;108532;1268;24157;-76
2022/08/13 10:59:08;;;;;;;17.40;15.60;;;;;;;19.06;100.00;96584.23;108350;1268;35576;-76
2022/08/13 11:01:40;;;;;;;16.40;14.80;;;;;;;19.19;100.00;96581.91;108458;1268;24262;-76
2022/08/13 11:04:11;;;;;;;18.00;15.90;;;;;;;19.27;100.00;96577.88;108389;1268;22624;-77
2022/08/13 11:06:45;;;;;;;16.00;14.40;;;;;;;19.34;100.00;96579.39;108528;1268;22547;-77
2022/08/13 11:09:18;;;;;;;16.60;15.00;;;;;;;19.33;100.00;96576.52;108334;1268;39516;-76
2022/08/13 11:11:49;;;;;;;16.90;15.30;;;;;;;19.26;100.00;96577.30;108554;1268;25459;-76
2022/08/13 11:14:21;;;;;;;15.90;14.30;;;;;;;19.19;100.00;96574.85;108542;1268;22624;-76
2022/08/13 11:16:57;;;;;;;16.60;14.90;;;;;;;19.05;99.96;96572.36;108437;1267;22582;-76
2022/08/13 11:19:29;;;;;;;17.40;15.70;;;;;;;18.95;100.00;96567.81;108340;1268;25290;-76
2022/08/13 11:22:01;;;;;;;17.80;16.00;;;;;;;18.92;100.00;96568.33;108424;1268;23297;-76
2022/08/13 11:24:33;;;;;;;17.00;15.20;;;;;;;18.93;100.00;96566.45;108538;1268;25346;-77
2022/08/13 11:27:04;;;;;;;18.10;16.30;;;;;;;19.00;100.00;96568.30;108529;1268;22486;-77
2022/08/13 11:29:36;;;;;;;17.80;15.50;;;;;;;19.03;100.00;96571.31;108474;1268;24900;-77
2022/08/13 11:32:08;;;;;;;17.60;15.90;;;;;;;19.10;100.00;96571.98;108546;1268;22546;-77
2022/08/13 11:34:42;;;;;;;17.90;16.00;;;;;;;19.17;100.00;96572.32;108524;1267;22646;-77
2022/08/13 11:37:15;;;;;;;17.60;15.80;;;;;;;19.22;100.00;96569.70;108433;1267;22802;-77
2022/08/13 11:39:46;;;;;;;14.80;13.30;;;;;;;19.29;100.00;96568.95;108425;1266;32905;-76
2022/08/13 11:42:17;;;;;;;15.00;13.50;;;;;;;19.34;100.00;96573.70;108538;1268;23697;-77
2022/08/13 11:44:51;;;;;;;15.20;13.70;;;;;;;19.36;100.00;96568.39;108394;1268;24224;-76
2022/08/13 11:47:22;;;;;;;15.70;13.50;;;;;;;19.40;100.00;96566.84;108515;1268;23996;-77
2022/08/13 11:49:53;;;;;;;14.80;13.40;;;;;;;19.42;100.00;96566.19;108336;1268;24267;-76
2022/08/13 11:52:24;;;;;;;15.70;14.10;;;;;;;19.37;99.88;96568.79;108516;1268;24232;-76
2022/08/13 11:54:55;;;;;;;16.00;14.40;;;;;;;19.30;99.76;96569.21;108540;1265;22559;-77
2022/08/13 11:57:27;;;;;;;14.00;12.70;;;;;;;19.27;99.78;96567.02;108514;1267;22559;-77